Huvudsida
METAR-TAF:

METAR-TAF

Flygplatser :

Mora-Siljan flygplats

Mora, Sverige

latitud: 60-57-31N, longitud: 14-30-40E, höjd: 193 m

Aktuellt väderrapport

Denna rapport gjordes för 16 minuter sedan, klockan 07:50 UTC
Vind 7 kt från nordväst
Temperatur 3°C
Fuktighet 93%
Tryck 990 hPa
Sikt 10 km eller mer

METAR: ESKM 230750Z AUTO 31007KT 9999 OVC150/// 03/02 Q0990

Tid: 10:06 (08:06 UTC)


TAF: saknas

Aktuella väderrapporter och prognoser från 4000 flygplatser (METAR- och TAF-rapporter).

De tillgängliga stationerna syns som gula och röda prickar på kartan.

För musen över prickarna för att se namnen på stationerna.

Klicka sedan för att få väderrapporter och prognoser.

För att ändra kartan: Klicka på de gröna knapparna med ett svart kors på för att zooma in; den gröna knappen med ett streck på för att zooma ut; eller på de gröna pilarna för angränsande kartor.


METAR-TAF: